createdAt,value
2018-06-30T00:03:10.719Z,7.70
2018-06-30T00:07:14.157Z,7.95
2018-06-30T00:11:17.824Z,8.03
2018-06-30T00:15:21.285Z,8.20
2018-06-30T00:19:24.765Z,7.60
2018-06-30T00:23:28.197Z,8.10
2018-06-30T00:27:31.605Z,8.50
2018-06-30T00:31:35.038Z,8.50
2018-06-30T00:35:38.502Z,7.77
2018-06-30T00:39:41.938Z,8.30
2018-06-30T00:43:45.393Z,8.85
2018-06-30T00:47:48.823Z,8.78
2018-06-30T00:51:52.223Z,9.10
2018-06-30T00:55:55.663Z,8.70
2018-06-30T00:59:59.250Z,9.43
2018-06-30T01:04:02.687Z,9.20
2018-06-30T01:08:06.678Z,9.73
2018-06-30T01:12:10.121Z,9.40
2018-06-30T01:16:13.582Z,8.43
2018-06-30T01:20:17.371Z,9.10
2018-06-30T01:24:20.807Z,9.50
2018-06-30T01:28:24.279Z,9.93
2018-06-30T01:32:27.790Z,9.23
2018-06-30T01:36:31.261Z,10.27
2018-06-30T01:40:34.706Z,9.40
2018-06-30T01:44:38.479Z,9.93
2018-06-30T01:48:41.868Z,8.77
2018-06-30T01:52:45.294Z,9.17
2018-06-30T01:56:48.710Z,10.40
2018-06-30T02:00:52.145Z,9.00
2018-06-30T02:04:55.597Z,9.10
2018-06-30T02:08:59.050Z,9.67
2018-06-30T02:13:02.558Z,9.00
2018-06-30T02:17:05.990Z,9.47
2018-06-30T02:21:09.419Z,9.27
2018-06-30T02:25:12.878Z,9.40
2018-06-30T02:29:16.334Z,9.70
2018-06-30T02:33:19.792Z,10.73
2018-06-30T02:37:23.225Z,9.77
2018-06-30T02:41:26.678Z,10.03
2018-06-30T02:45:30.166Z,10.17
2018-06-30T02:49:33.612Z,10.13
2018-06-30T02:53:37.085Z,9.80
2018-06-30T02:57:40.597Z,10.27
2018-06-30T03:01:44.096Z,10.60
2018-06-30T03:05:47.606Z,10.87
2018-06-30T03:09:51.012Z,10.33
2018-06-30T03:13:54.458Z,10.30
2018-06-30T03:17:57.881Z,10.90
2018-06-30T03:22:01.316Z,11.03
2018-06-30T03:26:04.741Z,10.63
2018-06-30T03:30:08.180Z,10.83
2018-06-30T03:34:11.585Z,11.53
2018-06-30T03:38:15.098Z,11.50
2018-06-30T03:42:18.545Z,11.67
2018-06-30T03:46:22.028Z,11.03
2018-06-30T03:50:25.412Z,11.30
2018-06-30T03:54:28.838Z,11.00
2018-06-30T03:58:32.283Z,11.03
2018-06-30T04:02:35.711Z,11.67
2018-06-30T04:06:39.174Z,10.97
2018-06-30T04:10:42.668Z,11.73
2018-06-30T04:14:46.267Z,11.67
2018-06-30T04:18:49.763Z,11.07
2018-06-30T04:22:53.261Z,11.57
2018-06-30T04:26:56.710Z,11.20
2018-06-30T04:31:00.961Z,10.73
2018-06-30T04:35:04.562Z,11.27
2018-06-30T04:39:09.113Z,11.90
2018-06-30T04:43:12.582Z,11.80
2018-06-30T04:47:16.022Z,11.77
2018-06-30T04:51:19.463Z,12.57
2018-06-30T04:55:22.897Z,11.77
2018-06-30T04:59:26.332Z,11.90
2018-06-30T05:03:29.798Z,12.27
2018-06-30T05:07:33.256Z,11.47
2018-06-30T05:11:36.704Z,11.10
2018-06-30T05:15:40.134Z,10.73
2018-06-30T05:19:43.545Z,10.40
2018-06-30T05:23:46.964Z,9.98
2018-06-30T05:27:50.385Z,8.87
2018-06-30T05:31:53.875Z,8.57
2018-06-30T05:35:57.350Z,9.03
2018-06-30T05:40:00.766Z,9.78
2018-06-30T05:44:04.309Z,9.60
2018-06-30T05:48:07.755Z,8.80
2018-06-30T05:52:11.168Z,8.67
2018-06-30T05:56:14.624Z,8.67
2018-06-30T06:00:18.074Z,9.87
2018-06-30T06:04:21.509Z,8.85
2018-06-30T06:08:24.937Z,11.03
2018-06-30T06:12:28.368Z,8.23
2018-06-30T06:16:32.057Z,8.75
2018-06-30T06:20:35.504Z,8.07
2018-06-30T06:24:38.952Z,9.95
2018-06-30T06:28:42.355Z,9.07
2018-06-30T06:32:45.802Z,12.23
2018-06-30T06:36:49.200Z,9.30
2018-06-30T06:40:52.622Z,9.80
2018-06-30T06:44:56.087Z,8.57
2018-06-30T06:48:59.576Z,6.53
2018-06-30T06:53:03.005Z,6.87
2018-06-30T06:57:06.438Z,6.10
2018-06-30T07:01:09.855Z,7.40
2018-06-30T07:05:13.284Z,6.80
2018-06-30T07:09:16.728Z,9.83
2018-06-30T07:13:20.204Z,7.15
2018-06-30T07:17:23.654Z,8.40
2018-06-30T07:21:27.333Z,7.72
2018-06-30T07:25:30.784Z,7.25
2018-06-30T07:29:34.223Z,10.18
2018-06-30T07:33:37.939Z,9.23
2018-06-30T07:37:41.403Z,9.38
2018-06-30T07:41:44.833Z,5.77
2018-06-30T07:45:48.647Z,9.00
2018-06-30T07:49:52.076Z,6.33
2018-06-30T07:53:55.547Z,6.70
2018-06-30T07:57:59.059Z,4.17
2018-06-30T08:02:06.275Z,9.00
2018-06-30T08:06:10.006Z,5.83
2018-06-30T08:10:13.505Z,5.67
2018-06-30T08:14:16.975Z,7.55
2018-06-30T08:18:20.388Z,10.77
2018-06-30T08:22:23.827Z,10.00
2018-06-30T08:26:27.274Z,5.90
2018-06-30T08:30:31.145Z,7.83
2018-06-30T08:34:34.653Z,6.33
2018-06-30T08:38:38.078Z,5.50
2018-06-30T08:42:41.773Z,5.13
2018-06-30T08:46:45.208Z,8.13
2018-06-30T08:50:48.670Z,5.13
2018-06-30T08:54:52.207Z,7.77
2018-06-30T08:58:55.730Z,5.97
2018-06-30T09:02:59.124Z,7.70
2018-06-30T09:07:02.535Z,5.87
2018-06-30T09:11:06.718Z,5.63
2018-06-30T09:15:11.096Z,4.80
2018-06-30T09:19:14.687Z,4.47
2018-06-30T09:23:18.159Z,5.87
2018-06-30T09:27:20.574Z,5.27
2018-06-30T09:31:24.624Z,4.95
2018-06-30T09:35:28.553Z,4.87
2018-06-30T09:39:32.095Z,4.22
2018-06-30T09:43:37.289Z,6.65
2018-06-30T09:47:41.008Z,4.83
2018-06-30T09:51:44.477Z,3.37
2018-06-30T09:55:47.865Z,6.28
2018-06-30T09:59:51.383Z,5.78
2018-06-30T10:03:54.800Z,4.87
2018-06-30T10:07:58.206Z,5.47
2018-06-30T10:12:01.586Z,3.98
2018-06-30T10:16:04.981Z,3.15
2018-06-30T10:20:08.428Z,3.25
2018-06-30T10:24:11.844Z,7.28
2018-06-30T10:28:15.277Z,6.40
2018-06-30T10:32:18.700Z,3.52
2018-06-30T10:36:22.250Z,2.98
2018-06-30T10:40:25.653Z,3.95
2018-06-30T10:44:29.071Z,4.15
2018-06-30T10:48:32.510Z,3.77
2018-06-30T10:52:35.979Z,4.08
2018-06-30T10:56:39.406Z,3.85
2018-06-30T11:00:43.127Z,3.60
2018-06-30T11:04:46.554Z,3.08
2018-06-30T11:08:49.994Z,5.37
2018-06-30T11:12:53.438Z,4.03
2018-06-30T11:16:56.992Z,3.47
2018-06-30T11:21:00.523Z,2.37
2018-06-30T11:25:04.067Z,3.08
2018-06-30T11:29:07.435Z,2.35
2018-06-30T11:33:10.861Z,1.30
2018-06-30T11:37:14.259Z,1.98
2018-06-30T11:41:17.716Z,2.55
2018-06-30T11:45:21.164Z,4.80
2018-06-30T11:49:24.571Z,3.52
2018-06-30T11:53:28.019Z,2.08
2018-06-30T11:57:31.436Z,2.55
2018-06-30T12:01:34.862Z,5.78
2018-06-30T12:05:38.354Z,3.20
2018-06-30T12:09:41.796Z,1.95
2018-06-30T12:13:45.221Z,5.55
2018-06-30T12:17:48.674Z,2.98
2018-06-30T12:21:52.130Z,3.47
2018-06-30T12:25:55.528Z,3.12
2018-06-30T12:29:58.987Z,1.52
2018-06-30T12:34:03.285Z,2.47
2018-06-30T12:38:07.140Z,0.88
2018-06-30T12:42:10.574Z,1.47
2018-06-30T12:46:13.983Z,2.05
2018-06-30T12:50:17.417Z,1.12
2018-06-30T12:54:20.871Z,2.02
2018-06-30T12:58:24.938Z,0.90
2018-06-30T13:02:33.774Z,3.12
2018-06-30T13:06:37.309Z,6.67
2018-06-30T13:10:40.707Z,1.40
2018-06-30T13:14:44.124Z,2.70
2018-06-30T13:18:48.118Z,2.55
2018-06-30T13:22:52.050Z,4.05
2018-06-30T13:26:55.474Z,1.62
2018-06-30T13:30:58.900Z,3.27
2018-06-30T13:35:02.305Z,2.37
2018-06-30T13:39:10.159Z,2.27
2018-06-30T13:43:13.588Z,2.72
2018-06-30T13:47:17.002Z,1.00
2018-06-30T13:51:20.448Z,1.30
2018-06-30T13:55:23.979Z,2.92
2018-06-30T13:59:27.395Z,2.27
2018-06-30T14:03:30.814Z,2.45
2018-06-30T14:07:34.282Z,1.45
2018-06-30T14:11:37.690Z,3.52
2018-06-30T14:15:41.150Z,3.33
2018-06-30T14:19:44.574Z,1.60
2018-06-30T14:23:48.238Z,4.92
2018-06-30T14:27:51.638Z,3.35
2018-06-30T14:31:55.400Z,0.95
2018-06-30T14:35:59.299Z,2.92
2018-06-30T14:40:02.722Z,3.45
2018-06-30T14:44:06.936Z,1.30
2018-06-30T14:48:10.372Z,3.05
2018-06-30T14:52:13.734Z,2.22
2018-06-30T14:56:17.128Z,1.47
2018-06-30T15:00:20.535Z,2.67
2018-06-30T15:04:23.959Z,2.80
2018-06-30T15:08:27.402Z,2.05
2018-06-30T15:12:31.044Z,1.82
2018-06-30T15:16:34.474Z,4.35
2018-06-30T15:20:37.886Z,1.10
2018-06-30T15:24:41.301Z,2.52
2018-06-30T15:28:44.777Z,1.40
2018-06-30T15:32:48.873Z,3.87
2018-06-30T15:36:52.422Z,1.52
2018-06-30T15:40:55.840Z,1.95
2018-06-30T15:45:00.424Z,1.37
2018-06-30T15:49:03.880Z,4.47
2018-06-30T15:53:07.278Z,1.77
2018-06-30T15:57:10.728Z,1.97
2018-06-30T16:01:14.154Z,1.97
2018-06-30T16:05:17.589Z,3.00
2018-06-30T16:09:21.047Z,2.02
2018-06-30T16:13:24.455Z,5.28
2018-06-30T16:17:27.884Z,1.35
2018-06-30T16:21:31.489Z,2.80
2018-06-30T16:25:35.101Z,2.13
2018-06-30T16:29:38.534Z,1.90
2018-06-30T16:33:42.224Z,1.50
2018-06-30T16:37:45.657Z,2.60
2018-06-30T16:41:49.064Z,3.63
2018-06-30T16:45:52.523Z,3.87
2018-06-30T16:49:56.007Z,2.10
2018-06-30T16:53:59.440Z,2.83
2018-06-30T16:58:02.884Z,2.50
2018-06-30T17:02:06.539Z,3.50
2018-06-30T17:06:10.024Z,2.93
2018-06-30T17:10:13.398Z,1.80
2018-06-30T17:14:16.970Z,2.20
2018-06-30T17:18:20.371Z,1.43
2018-06-30T17:22:23.811Z,1.33
2018-06-30T17:26:27.510Z,1.37
2018-06-30T17:30:30.916Z,1.40
2018-06-30T17:34:39.159Z,2.10
2018-06-30T17:38:42.634Z,3.17
2018-06-30T17:42:46.077Z,2.53
2018-06-30T17:46:49.459Z,1.67
2018-06-30T17:50:52.950Z,1.43
2018-06-30T17:54:58.786Z,2.50
2018-06-30T17:59:03.303Z,1.97
2018-06-30T18:03:06.951Z,2.53
2018-06-30T18:07:10.508Z,2.23
2018-06-30T18:11:13.930Z,3.67
2018-06-30T18:15:17.371Z,1.83
2018-06-30T18:19:20.792Z,1.43
2018-06-30T18:23:24.194Z,1.10
2018-06-30T18:27:30.968Z,3.40
2018-06-30T18:31:34.549Z,2.80
2018-06-30T18:35:38.077Z,0.70
2018-06-30T18:39:41.634Z,3.30
2018-06-30T18:43:45.069Z,2.83
2018-06-30T18:47:48.503Z,1.90
2018-06-30T18:51:51.933Z,1.50
2018-06-30T18:55:55.334Z,2.93
2018-06-30T18:59:58.751Z,1.73
2018-06-30T19:04:02.604Z,3.67
2018-06-30T19:08:06.876Z,1.60
2018-06-30T19:12:10.503Z,1.63
2018-06-30T19:16:13.916Z,1.10
2018-06-30T19:20:17.271Z,1.50
2018-06-30T19:24:20.832Z,2.40
2018-06-30T19:28:24.649Z,2.27
2018-06-30T19:32:28.068Z,2.90
2018-06-30T19:36:31.571Z,1.37
2018-06-30T19:40:35.361Z,2.43
2018-06-30T19:44:38.790Z,2.17
2018-06-30T19:48:42.202Z,2.03
2018-06-30T19:52:45.709Z,2.27
2018-06-30T19:56:49.409Z,2.23
2018-06-30T20:00:52.842Z,1.83
2018-06-30T20:04:57.394Z,2.30
2018-06-30T20:09:00.809Z,2.13
2018-06-30T20:13:04.223Z,1.57
2018-06-30T20:17:07.666Z,3.73
2018-06-30T20:21:11.297Z,1.70
2018-06-30T20:25:14.746Z,2.53
2018-06-30T20:29:18.187Z,3.07
2018-06-30T20:33:29.873Z,2.57
2018-06-30T20:37:33.944Z,2.07
2018-06-30T20:41:38.965Z,1.93
2018-06-30T20:45:43.056Z,2.13
2018-06-30T20:49:46.546Z,3.33
2018-06-30T20:53:50.127Z,1.97
2018-06-30T20:57:53.583Z,2.53
2018-06-30T21:01:57.005Z,2.03
2018-06-30T21:06:00.455Z,2.00
2018-06-30T21:10:04.448Z,3.50
2018-06-30T21:14:07.922Z,1.57
2018-06-30T21:18:11.405Z,1.63
2018-06-30T21:22:14.817Z,3.57
2018-06-30T21:26:18.245Z,1.27
2018-06-30T21:30:21.738Z,2.60
2018-06-30T21:34:25.316Z,4.30
2018-06-30T21:38:28.709Z,3.10
2018-06-30T21:42:32.253Z,2.30
2018-06-30T21:46:35.984Z,1.27
2018-06-30T21:50:39.879Z,2.47
2018-06-30T21:54:43.294Z,2.10
2018-06-30T21:58:46.710Z,1.73
2018-06-30T22:02:50.153Z,4.13
2018-06-30T22:06:53.594Z,2.13
2018-06-30T22:10:57.101Z,3.63
2018-06-30T22:15:01.426Z,2.43
2018-06-30T22:19:04.871Z,2.37
2018-06-30T22:23:08.282Z,1.83
2018-06-30T22:27:11.688Z,1.90
2018-06-30T22:31:15.090Z,2.93
2018-06-30T22:35:18.484Z,3.13
2018-06-30T22:39:33.072Z,2.33
2018-06-30T22:43:37.273Z,2.13
2018-06-30T22:47:40.680Z,4.50
2018-06-30T22:51:44.147Z,1.70
2018-06-30T22:55:47.574Z,2.47
2018-06-30T22:59:51.013Z,2.80
2018-06-30T23:03:54.806Z,3.47
2018-06-30T23:07:58.317Z,3.20
2018-06-30T23:12:01.709Z,4.30
2018-06-30T23:16:05.323Z,1.17
2018-06-30T23:20:09.329Z,1.90
2018-06-30T23:24:12.749Z,3.77
2018-06-30T23:28:16.443Z,2.10
2018-06-30T23:32:19.867Z,2.20
2018-06-30T23:36:23.292Z,2.20
2018-06-30T23:40:26.681Z,2.20
2018-06-30T23:44:30.133Z,1.73
2018-06-30T23:48:33.650Z,1.90
2018-06-30T23:52:37.425Z,2.40
2018-06-30T23:56:40.848Z,1.50
